Beaumont, Texas
Current Conditions -  °F | °C
As of 11:35 AM on Monday 22 Dec 2014 (Local Time) from KBMT Reporting Station
Overcast Overcast  
Wind Chill: 70°   Ceiling: 2600
Heat Index: 70°   Visibility: 10mi
Dew Point: 62°   Wind: 14mph
Humidity: 77%   Direction: 220°SW
Pressure: 29.73"   Gusts: 23mph
Location:  30.09°N, 94.1°W
Report Text: KBMT 221735Z AUTO 22012G20KT 10SM SCT021 BKN026 OVC040 21/17 A2973 RMK AO2 LTG DSNT E T02100169
Loading
Personal Weather Stations






























Interactive Weather Map New forecast layout! Learn more

10-Day Weather Forecast

Advertisements
Track Severe Weather on mobile